createdAt,value
2018-04-18T00:01:10.357Z,64.80
2018-04-18T00:03:36.352Z,64.70
2018-04-18T00:06:02.485Z,64.20
2018-04-18T00:08:29.269Z,64.30
2018-04-18T00:10:56.005Z,64.80
2018-04-18T00:13:22.746Z,64.20
2018-04-18T00:15:49.461Z,65.50
2018-04-18T00:18:15.433Z,64.80
2018-04-18T00:20:41.416Z,64.10
2018-04-18T00:23:07.389Z,64.30
2018-04-18T00:25:33.429Z,63.60
2018-04-18T00:27:59.405Z,64.10
2018-04-18T00:30:26.158Z,63.50
2018-04-18T00:32:52.139Z,63.40
2018-04-18T00:35:18.145Z,64.20
2018-04-18T00:37:44.136Z,64.00
2018-04-18T00:40:10.149Z,63.70
2018-04-18T00:42:36.125Z,63.80
2018-04-18T00:45:02.161Z,63.30
2018-04-18T00:47:28.120Z,64.00
2018-04-18T00:49:54.856Z,64.30
2018-04-18T00:52:21.570Z,64.60
2018-04-18T00:54:47.554Z,64.60
2018-04-18T00:57:13.509Z,64.70
2018-04-18T00:59:39.483Z,65.20
2018-04-18T01:02:05.477Z,64.70
2018-04-18T01:04:31.485Z,65.10
2018-04-18T01:06:57.462Z,64.60
2018-04-18T01:09:23.513Z,64.70
2018-04-18T01:11:49.530Z,64.90
2018-04-18T01:14:15.521Z,65.30
2018-04-18T01:16:41.538Z,64.70
2018-04-18T01:19:07.541Z,65.60
2018-04-18T01:21:34.359Z,65.60
2018-04-18T01:24:00.337Z,65.50
2018-04-18T01:26:26.313Z,65.70
2018-04-18T01:28:52.281Z,65.80
2018-04-18T01:31:18.277Z,66.80
2018-04-18T01:33:45.118Z,66.30
2018-04-18T01:36:11.856Z,66.70
2018-04-18T01:38:38.580Z,66.60
2018-04-18T01:41:04.581Z,66.60
2018-04-18T01:43:30.568Z,66.80
2018-04-18T01:45:56.753Z,67.10
2018-04-18T01:48:22.742Z,67.00
2018-04-18T01:50:48.753Z,67.10
2018-04-18T01:53:14.713Z,67.10
2018-04-18T01:55:40.672Z,67.40
2018-04-18T01:58:07.389Z,67.40
2018-04-18T02:00:34.148Z,67.40
2018-04-18T02:03:00.885Z,67.40
2018-04-18T02:05:27.626Z,67.50
2018-04-18T02:07:53.612Z,67.40
2018-04-18T02:10:19.576Z,67.40
2018-04-18T02:12:46.284Z,67.60
2018-04-18T02:15:12.261Z,67.50
2018-04-18T02:17:38.256Z,68.00
2018-04-18T02:20:04.250Z,67.90
2018-04-18T02:22:30.218Z,67.90
2018-04-18T02:24:56.212Z,68.40
2018-04-18T02:27:22.202Z,68.20
2018-04-18T02:29:48.181Z,68.30
2018-04-18T02:32:14.180Z,68.00
2018-04-18T02:34:40.177Z,68.20
2018-04-18T02:37:06.191Z,68.50
2018-04-18T02:39:32.294Z,68.80
2018-04-18T02:41:58.297Z,68.90
2018-04-18T02:44:24.326Z,69.50
2018-04-18T02:46:50.346Z,69.20
2018-04-18T02:49:16.363Z,69.60
2018-04-18T02:51:42.375Z,69.60
2018-04-18T02:54:09.108Z,70.40
2018-04-18T02:56:35.081Z,70.30
2018-04-18T02:59:01.049Z,70.00
2018-04-18T03:01:27.038Z,70.20
2018-04-18T03:03:53.024Z,70.00
2018-04-18T03:06:19.753Z,70.20
2018-04-18T03:08:46.474Z,70.20
2018-04-18T03:11:12.497Z,70.10
2018-04-18T03:13:38.498Z,70.20
2018-04-18T03:16:04.489Z,70.60
2018-04-18T03:18:30.464Z,70.20
2018-04-18T03:20:56.467Z,70.40
2018-04-18T03:23:22.429Z,70.30
2018-04-18T03:25:48.417Z,70.20
2018-04-18T03:28:14.393Z,70.20
2018-04-18T03:30:41.117Z,70.90
2018-04-18T03:33:07.846Z,71.00
2018-04-18T03:35:33.832Z,71.00
2018-04-18T03:37:59.813Z,71.10
2018-04-18T03:40:26.524Z,71.20
2018-04-18T03:42:53.257Z,71.10
2018-04-18T03:45:19.269Z,71.10
2018-04-18T03:47:45.274Z,71.20
2018-04-18T03:50:11.253Z,71.70
2018-04-18T03:52:38.007Z,71.50
2018-04-18T03:55:03.997Z,71.50
2018-04-18T03:57:29.985Z,71.40
2018-04-18T03:59:55.993Z,71.80
2018-04-18T04:02:21.984Z,71.90
2018-04-18T04:04:48.700Z,72.10
2018-04-18T04:07:14.680Z,72.10
2018-04-18T04:09:40.660Z,72.40
2018-04-18T04:12:07.419Z,72.50
2018-04-18T04:14:33.420Z,72.40
2018-04-18T04:17:06.547Z,72.70
2018-04-18T04:19:39.666Z,72.70
2018-04-18T04:22:11.866Z,72.70
2018-04-18T04:24:38.594Z,73.20
2018-04-18T04:27:04.581Z,73.20
2018-04-18T04:29:30.549Z,73.30
2018-04-18T04:31:56.541Z,73.50
2018-04-18T04:34:22.549Z,73.50
2018-04-18T04:36:48.565Z,73.60
2018-04-18T04:39:14.565Z,73.80
2018-04-18T04:41:41.283Z,73.50
2018-04-18T04:44:07.252Z,73.50
2018-04-18T04:46:33.447Z,73.20
2018-04-18T04:49:00.177Z,73.60
2018-04-18T04:51:26.173Z,73.70
2018-04-18T04:53:52.157Z,73.90
2018-04-18T04:56:19.170Z,74.40
2018-04-18T04:58:45.141Z,74.40
2018-04-18T05:01:11.087Z,74.40
2018-04-18T05:03:37.050Z,74.40
2018-04-18T05:06:03.025Z,74.10
2018-04-18T05:08:29.013Z,74.20
2018-04-18T05:10:54.985Z,74.20
2018-04-18T05:13:20.984Z,74.00
2018-04-18T05:15:46.960Z,74.10
2018-04-18T05:18:12.953Z,73.90
2018-04-18T05:20:38.946Z,74.10
2018-04-18T05:23:04.939Z,74.10
2018-04-18T05:25:31.664Z,73.70
2018-04-18T05:27:57.661Z,73.70
2018-04-18T05:30:23.652Z,73.40
2018-04-18T05:32:49.646Z,73.30
2018-04-18T05:35:16.370Z,72.90
2018-04-18T05:37:42.461Z,72.90
2018-04-18T05:40:08.450Z,72.90
2018-04-18T05:42:34.436Z,72.60
2018-04-18T05:45:00.413Z,72.80
2018-04-18T05:47:26.402Z,72.70
2018-04-18T05:49:53.117Z,72.50
2018-04-18T05:52:19.081Z,72.60
2018-04-18T05:54:45.054Z,72.50
2018-04-18T05:57:11.076Z,72.80
2018-04-18T05:59:37.053Z,72.40
2018-04-18T06:02:03.041Z,72.40
2018-04-18T06:04:29.015Z,72.50
2018-04-18T06:06:54.979Z,72.10
2018-04-18T06:09:20.941Z,72.30
2018-04-18T06:11:47.662Z,72.70
2018-04-18T06:14:14.384Z,72.10
2018-04-18T06:16:40.353Z,72.60
2018-04-18T06:19:06.355Z,72.20
2018-04-18T06:21:32.301Z,72.30
2018-04-18T06:23:58.312Z,72.10
2018-04-18T06:26:24.281Z,72.00
2018-04-18T06:28:50.293Z,71.90
2018-04-18T06:31:16.273Z,71.40
2018-04-18T06:33:42.308Z,71.60
2018-04-18T06:36:09.007Z,71.70
2018-04-18T06:38:35.168Z,71.70
2018-04-18T06:41:01.179Z,71.90
2018-04-18T06:43:27.184Z,71.60
2018-04-18T06:45:53.239Z,71.40
2018-04-18T06:48:19.199Z,71.90
2018-04-18T06:50:45.185Z,72.00
2018-04-18T06:53:11.177Z,72.40
2018-04-18T06:55:37.152Z,71.60
2018-04-18T06:58:03.145Z,71.60
2018-04-18T07:00:29.851Z,71.70
2018-04-18T07:02:55.820Z,71.70
2018-04-18T07:05:21.797Z,70.60
2018-04-18T07:07:47.786Z,70.10
2018-04-18T07:10:13.753Z,69.90
2018-04-18T07:12:39.737Z,69.40
2018-04-18T07:15:05.717Z,69.70
2018-04-18T07:17:31.724Z,69.80
2018-04-18T07:19:59.183Z,69.10
2018-04-18T07:22:25.129Z,69.10
2018-04-18T07:24:51.857Z,69.30
2018-04-18T07:27:17.837Z,69.30
2018-04-18T07:29:43.837Z,67.90
2018-04-18T07:32:09.793Z,68.20
2018-04-18T07:34:35.775Z,68.00
2018-04-18T07:37:01.801Z,68.10
2018-04-18T07:39:27.795Z,67.80
2018-04-18T07:41:54.510Z,67.00
2018-04-18T07:44:20.493Z,67.00
2018-04-18T07:46:46.464Z,66.90
2018-04-18T07:49:12.520Z,66.70
2018-04-18T07:51:38.493Z,66.90
2018-04-18T07:54:04.512Z,67.00
2018-04-18T07:56:30.482Z,65.90
2018-04-18T07:58:56.481Z,66.10
2018-04-18T08:01:22.456Z,65.40
2018-04-18T08:03:48.469Z,65.40
2018-04-18T08:06:14.495Z,64.90
2018-04-18T08:08:40.485Z,64.50
2018-04-18T08:11:07.197Z,64.50
2018-04-18T08:13:33.180Z,64.50
2018-04-18T08:15:59.175Z,64.10
2018-04-18T08:18:26.123Z,63.20
2018-04-18T08:20:52.289Z,63.20
2018-04-18T08:23:18.296Z,62.90
2018-04-18T08:25:44.281Z,63.10
2018-04-18T08:28:10.375Z,63.10
2018-04-18T08:30:36.349Z,63.30
2018-04-18T08:33:02.464Z,62.60
2018-04-18T08:35:28.498Z,63.40
2018-04-18T08:37:54.479Z,63.10
2018-04-18T08:40:20.484Z,62.80
2018-04-18T08:42:46.469Z,62.40
2018-04-18T08:45:13.218Z,61.70
2018-04-18T08:47:39.909Z,61.40
2018-04-18T08:50:05.958Z,61.40
2018-04-18T08:52:32.672Z,61.30
2018-04-18T08:54:58.674Z,61.30
2018-04-18T08:57:24.654Z,60.50
2018-04-18T08:59:50.753Z,60.90
2018-04-18T09:02:16.912Z,60.90
2018-04-18T09:04:43.599Z,61.20
2018-04-18T09:07:09.547Z,61.10
2018-04-18T09:09:35.530Z,60.60
2018-04-18T09:12:01.532Z,60.70
2018-04-18T09:14:27.536Z,59.90
2018-04-18T09:16:54.256Z,61.00
2018-04-18T09:19:20.241Z,60.90
2018-04-18T09:21:46.221Z,59.60
2018-04-18T09:24:12.960Z,59.40
2018-04-18T09:26:39.688Z,60.50
2018-04-18T09:29:05.685Z,60.40
2018-04-18T09:31:31.667Z,59.50
2018-04-18T09:33:57.667Z,59.30
2018-04-18T09:36:24.368Z,58.50
2018-04-18T09:38:50.367Z,58.40
2018-04-18T09:41:16.336Z,58.30
2018-04-18T09:43:42.332Z,57.70
2018-04-18T09:46:08.345Z,57.40
2018-04-18T09:48:34.306Z,57.60
2018-04-18T09:51:00.309Z,57.50
2018-04-18T09:53:26.331Z,57.10
2018-04-18T09:55:52.277Z,57.80
2018-04-18T09:58:18.298Z,56.70
2018-04-18T10:00:50.340Z,55.70
2018-04-18T10:03:16.316Z,55.50
2018-04-18T10:05:42.309Z,56.00
2018-04-18T10:08:08.313Z,55.80
2018-04-18T10:10:34.300Z,55.10
2018-04-18T10:13:00.312Z,54.70
2018-04-18T10:15:26.300Z,54.90
2018-04-18T10:17:52.272Z,55.30
2018-04-18T10:20:18.268Z,54.70
2018-04-18T10:22:45.011Z,55.30
2018-04-18T10:25:11.750Z,55.50
2018-04-18T10:27:38.480Z,54.20
2018-04-18T10:30:05.209Z,55.30
2018-04-18T10:32:31.189Z,55.20
2018-04-18T10:34:57.185Z,55.40
2018-04-18T10:37:23.194Z,54.90
2018-04-18T10:39:49.931Z,54.60
2018-04-18T10:42:16.649Z,56.20
2018-04-18T10:44:42.650Z,55.40
2018-04-18T10:47:08.620Z,53.80
2018-04-18T10:49:35.361Z,55.20
2018-04-18T10:52:02.100Z,53.50
2018-04-18T10:54:28.828Z,53.70
2018-04-18T10:56:56.281Z,52.80
2018-04-18T10:59:22.281Z,52.70
2018-04-18T11:01:48.261Z,53.50
2018-04-18T11:04:14.233Z,52.30
2018-04-18T11:06:40.239Z,53.00
2018-04-18T11:09:06.203Z,52.90
2018-04-18T11:11:32.938Z,53.00
2018-04-18T11:13:58.910Z,52.10
2018-04-18T11:16:24.906Z,52.20
2018-04-18T11:18:50.930Z,51.00
2018-04-18T11:21:16.930Z,51.30
2018-04-18T11:23:42.893Z,51.70
2018-04-18T11:26:08.915Z,49.90
2018-04-18T11:28:34.905Z,50.10
2018-04-18T11:31:01.644Z,52.10
2018-04-18T11:33:27.613Z,51.60
2018-04-18T11:35:53.617Z,51.30
2018-04-18T11:38:20.320Z,51.30
2018-04-18T11:40:46.325Z,51.40
2018-04-18T11:43:12.299Z,50.50
2018-04-18T11:45:38.293Z,49.70
2018-04-18T11:48:04.265Z,50.90
2018-04-18T11:50:30.421Z,48.80
2018-04-18T11:52:56.409Z,49.60
2018-04-18T11:55:22.410Z,48.60
2018-04-18T11:57:51.450Z,50.00
2018-04-18T12:00:20.534Z,49.60
2018-04-18T12:02:46.515Z,49.20
2018-04-18T12:05:13.245Z,49.00
2018-04-18T12:07:39.222Z,49.00
2018-04-18T12:10:05.221Z,50.10
2018-04-18T12:12:31.332Z,50.20
2018-04-18T12:14:58.080Z,50.90
2018-04-18T12:17:24.822Z,49.20
2018-04-18T12:19:50.801Z,49.20
2018-04-18T12:22:16.797Z,49.20
2018-04-18T12:24:42.789Z,48.40
2018-04-18T12:27:09.610Z,48.30
2018-04-18T12:29:35.581Z,48.40
2018-04-18T12:32:01.717Z,47.90
2018-04-18T12:34:27.677Z,47.70
2018-04-18T12:36:54.426Z,48.80
2018-04-18T12:39:20.394Z,48.20
2018-04-18T12:41:46.383Z,46.70
2018-04-18T12:44:13.118Z,48.70
2018-04-18T12:46:39.865Z,49.00
2018-04-18T12:49:05.885Z,49.00
2018-04-18T12:51:32.633Z,47.00
2018-04-18T12:53:59.361Z,47.30
2018-04-18T12:56:26.093Z,45.90
2018-04-18T12:58:53.052Z,45.40
2018-04-18T13:01:19.855Z,46.40
2018-04-18T13:03:45.833Z,46.10
2018-04-18T13:06:11.834Z,45.80
2018-04-18T13:08:38.565Z,45.20
2018-04-18T13:11:04.549Z,45.20
2018-04-18T13:13:30.528Z,44.40
2018-04-18T13:15:56.505Z,43.60
2018-04-18T13:18:22.505Z,43.00
2018-04-18T13:20:48.481Z,42.60
2018-04-18T13:23:14.479Z,42.80
2018-04-18T13:25:40.423Z,41.60
2018-04-18T13:28:06.463Z,42.60
2018-04-18T13:30:32.425Z,41.90
2018-04-18T13:32:58.422Z,41.80
2018-04-18T13:35:24.398Z,40.80
2018-04-18T13:37:50.414Z,41.20
2018-04-18T13:40:16.407Z,41.20
2018-04-18T13:42:42.414Z,41.90
2018-04-18T13:45:09.140Z,40.70
2018-04-18T13:47:35.881Z,42.30
2018-04-18T13:50:02.160Z,42.40
2018-04-18T13:52:28.158Z,40.90
2018-04-18T13:54:54.885Z,41.20
2018-04-18T13:57:20.904Z,41.20
2018-04-18T13:59:47.624Z,41.10
2018-04-18T14:02:13.624Z,41.00
2018-04-18T14:04:39.595Z,40.30
2018-04-18T14:07:06.296Z,40.40
2018-04-18T14:09:32.251Z,40.50
2018-04-18T14:11:58.976Z,41.70
2018-04-18T14:14:25.698Z,43.00
2018-04-18T14:16:51.685Z,42.90
2018-04-18T14:19:17.661Z,41.60
2018-04-18T14:21:43.664Z,39.20
2018-04-18T14:24:09.641Z,39.40
2018-04-18T14:26:35.656Z,38.60
2018-04-18T14:29:02.349Z,39.90
2018-04-18T14:31:28.333Z,39.20
2018-04-18T14:33:54.312Z,40.20
2018-04-18T14:36:20.289Z,40.70
2018-04-18T14:38:46.257Z,38.40
2018-04-18T14:41:12.250Z,38.70
2018-04-18T14:43:38.238Z,37.90
2018-04-18T14:46:04.249Z,38.00
2018-04-18T14:48:30.986Z,39.10
2018-04-18T14:50:57.709Z,39.60
2018-04-18T14:53:24.469Z,38.20
2018-04-18T14:55:50.425Z,38.10
2018-04-18T14:58:16.413Z,38.40
2018-04-18T15:00:42.399Z,37.90
2018-04-18T15:03:08.389Z,37.30
2018-04-18T15:05:34.362Z,37.30
2018-04-18T15:08:00.349Z,36.80
2018-04-18T15:10:26.325Z,36.90
2018-04-18T15:12:53.069Z,36.90
2018-04-18T15:15:19.785Z,37.70
2018-04-18T15:17:46.549Z,38.50
2018-04-18T15:20:12.750Z,38.40
2018-04-18T15:22:38.772Z,38.20
2018-04-18T15:25:04.737Z,36.70
2018-04-18T15:27:30.741Z,37.20
2018-04-18T15:29:57.490Z,37.90
2018-04-18T15:32:23.468Z,37.10
2018-04-18T15:34:49.449Z,36.60
2018-04-18T15:37:15.437Z,38.00
2018-04-18T15:39:41.403Z,37.50
2018-04-18T15:42:07.381Z,37.40
2018-04-18T15:44:33.541Z,36.50
2018-04-18T15:46:59.611Z,37.80
2018-04-18T15:49:25.776Z,37.80
2018-04-18T15:51:51.878Z,37.50
2018-04-18T15:54:18.617Z,36.20
2018-04-18T15:56:44.653Z,36.80
2018-04-18T15:59:10.677Z,37.50
2018-04-18T16:01:36.785Z,38.60
2018-04-18T16:04:04.289Z,37.30
2018-04-18T16:06:30.278Z,37.30
2018-04-18T16:08:56.430Z,38.00
2018-04-18T16:11:22.388Z,37.60
2018-04-18T16:13:48.386Z,38.40
2018-04-18T16:16:15.095Z,38.40
2018-04-18T16:18:41.837Z,37.50
2018-04-18T16:21:07.805Z,37.10
2018-04-18T16:23:33.805Z,39.00
2018-04-18T16:26:00.532Z,37.60
2018-04-18T16:28:27.276Z,39.30
2018-04-18T16:30:54.005Z,38.60
2018-04-18T16:33:20.024Z,38.60
2018-04-18T16:35:46.030Z,38.30
2018-04-18T16:38:12.789Z,38.80
2018-04-18T16:40:38.765Z,38.80
2018-04-18T16:43:04.833Z,38.50
2018-04-18T16:45:31.580Z,38.90
2018-04-18T16:47:57.565Z,38.70
2018-04-18T16:50:23.557Z,37.90
2018-04-18T16:52:49.568Z,37.50
2018-04-18T16:55:16.289Z,37.70
2018-04-18T16:57:43.029Z,38.30
2018-04-18T17:00:09.022Z,38.10
2018-04-18T17:02:35.855Z,38.40
2018-04-18T17:05:01.809Z,38.30
2018-04-18T17:07:28.062Z,39.30
2018-04-18T17:09:54.908Z,40.10
2018-04-18T17:12:20.906Z,40.00
2018-04-18T17:14:46.928Z,39.30
2018-04-18T17:17:12.906Z,40.80
2018-04-18T17:19:38.996Z,41.20
2018-04-18T17:22:05.709Z,41.10
2018-04-18T17:24:31.720Z,41.10
2018-04-18T17:26:57.686Z,41.40
2018-04-18T17:29:24.437Z,41.70
2018-04-18T17:31:51.153Z,42.10
2018-04-18T17:34:17.180Z,42.20
2018-04-18T17:36:43.173Z,42.40
2018-04-18T17:39:09.165Z,43.20
2018-04-18T17:41:35.133Z,42.60
2018-04-18T17:44:01.166Z,43.10
2018-04-18T17:46:27.142Z,43.80
2018-04-18T17:48:53.130Z,44.70
2018-04-18T17:51:19.973Z,46.10
2018-04-18T17:53:46.715Z,44.70
2018-04-18T17:56:12.721Z,44.80
2018-04-18T17:58:38.720Z,46.00
2018-04-18T18:01:04.786Z,46.00
2018-04-18T18:03:31.512Z,47.60
2018-04-18T18:05:57.550Z,47.50
2018-04-18T18:08:24.289Z,48.90
2018-04-18T18:10:51.045Z,49.00
2018-04-18T18:13:17.057Z,48.90
2018-04-18T18:15:44.596Z,49.00
2018-04-18T18:18:10.601Z,48.90
2018-04-18T18:20:36.605Z,49.00
2018-04-18T18:23:02.650Z,48.90
2018-04-18T18:25:28.648Z,49.60
2018-04-18T18:27:54.654Z,50.20
2018-04-18T18:30:20.659Z,50.50
2018-04-18T18:32:47.355Z,51.20
2018-04-18T18:35:13.478Z,51.10
2018-04-18T18:37:39.445Z,52.60
2018-04-18T18:40:06.191Z,53.30
2018-04-18T18:42:32.892Z,53.00
2018-04-18T18:44:58.906Z,53.00
2018-04-18T18:47:24.883Z,53.60
2018-04-18T18:49:50.910Z,55.30
2018-04-18T18:52:17.622Z,56.00
2018-04-18T18:54:44.360Z,55.80
2018-04-18T18:57:10.329Z,55.80
2018-04-18T18:59:36.387Z,57.20
2018-04-18T19:02:02.374Z,57.70
2018-04-18T19:04:28.385Z,58.00
2018-04-18T19:06:54.365Z,58.60
2018-04-18T19:09:20.377Z,59.70
2018-04-18T19:11:46.358Z,61.20
2018-04-18T19:14:12.369Z,60.30
2018-04-18T19:16:38.369Z,60.80
2018-04-18T19:19:04.366Z,60.30
2018-04-18T19:21:30.406Z,60.70
2018-04-18T19:23:56.444Z,60.40
2018-04-18T19:26:22.404Z,60.50
2018-04-18T19:28:48.405Z,61.00
2018-04-18T19:31:15.428Z,62.10
2018-04-18T19:33:41.506Z,62.00
2018-04-18T19:36:07.522Z,61.90
2018-04-18T19:38:33.545Z,61.20
2018-04-18T19:40:59.596Z,60.60
2018-04-18T19:43:25.586Z,61.20
2018-04-18T19:45:51.625Z,61.90
2018-04-18T19:48:17.629Z,62.90
2018-04-18T19:50:44.408Z,64.10
2018-04-18T19:53:10.601Z,64.20
2018-04-18T19:55:37.385Z,64.00
2018-04-18T19:58:03.340Z,64.00
2018-04-18T20:00:29.600Z,63.60
2018-04-18T20:02:56.324Z,64.40
2018-04-18T20:05:22.407Z,64.50
2018-04-18T20:07:48.366Z,64.60
2018-04-18T20:10:14.325Z,64.60
2018-04-18T20:12:40.290Z,64.70
2018-04-18T20:15:08.055Z,64.10
2018-04-18T20:17:34.007Z,63.90
2018-04-18T20:20:00.717Z,64.70
2018-04-18T20:22:26.763Z,64.10
2018-04-18T20:24:52.729Z,64.60
2018-04-18T20:27:18.733Z,65.50
2018-04-18T20:29:44.726Z,66.20
2018-04-18T20:32:11.465Z,66.00
2018-04-18T20:34:38.200Z,66.30
2018-04-18T20:37:04.197Z,66.30
2018-04-18T20:39:30.177Z,65.90
2018-04-18T20:41:56.197Z,66.30
2018-04-18T20:44:22.224Z,65.90
2018-04-18T20:46:48.953Z,66.70
2018-04-18T20:49:14.953Z,66.70
2018-04-18T20:51:40.957Z,67.00
2018-04-18T20:54:06.954Z,67.20
2018-04-18T20:56:32.981Z,67.70
2018-04-18T20:58:58.953Z,67.30
2018-04-18T21:01:24.951Z,67.00
2018-04-18T21:03:50.937Z,67.10
2018-04-18T21:06:16.925Z,67.00
2018-04-18T21:08:43.677Z,68.60
2018-04-18T21:11:10.421Z,68.60
2018-04-18T21:13:36.411Z,68.60
2018-04-18T21:16:02.401Z,68.40
2018-04-18T21:18:28.402Z,68.60
2018-04-18T21:20:54.561Z,68.80
2018-04-18T21:23:20.541Z,69.00
2018-04-18T21:25:47.268Z,69.40
2018-04-18T21:28:13.244Z,69.40
2018-04-18T21:30:39.450Z,70.10
2018-04-18T21:33:05.437Z,70.20
2018-04-18T21:35:32.233Z,70.10
2018-04-18T21:37:58.223Z,70.10
2018-04-18T21:40:24.941Z,70.60
2018-04-18T21:42:50.944Z,70.50
2018-04-18T21:45:16.932Z,70.50
2018-04-18T21:47:42.932Z,70.70
2018-04-18T21:50:09.670Z,71.80
2018-04-18T21:52:36.412Z,71.70
2018-04-18T21:55:03.149Z,71.50
2018-04-18T21:57:29.140Z,71.60
2018-04-18T21:59:55.229Z,71.90
2018-04-18T22:02:21.238Z,71.70
2018-04-18T22:04:47.253Z,71.30
2018-04-18T22:07:13.266Z,72.00
2018-04-18T22:09:40.006Z,72.10
2018-04-18T22:12:06.736Z,72.20
2018-04-18T22:14:32.749Z,72.10
2018-04-18T22:16:58.790Z,72.70
2018-04-18T22:19:24.749Z,73.10
2018-04-18T22:21:50.760Z,72.60
2018-04-18T22:24:16.785Z,73.10
2018-04-18T22:26:42.772Z,73.00
2018-04-18T22:29:08.745Z,73.10
2018-04-18T22:31:34.716Z,73.40
2018-04-18T22:34:00.721Z,73.30
2018-04-18T22:36:26.698Z,73.20
2018-04-18T22:38:52.825Z,73.20
2018-04-18T22:41:19.533Z,73.30
2018-04-18T22:43:45.681Z,73.20
2018-04-18T22:46:12.429Z,73.30
2018-04-18T22:48:38.400Z,73.20
2018-04-18T22:51:04.406Z,73.70
2018-04-18T22:53:30.385Z,74.00
2018-04-18T22:55:57.126Z,74.40
2018-04-18T22:58:23.845Z,75.20
2018-04-18T23:00:49.854Z,75.20
2018-04-18T23:20:22.892Z,75.90
2018-04-18T23:22:49.605Z,77.50
2018-04-18T23:25:15.605Z,76.70
2018-04-18T23:27:41.576Z,78.00
2018-04-18T23:30:08.373Z,79.40
2018-04-18T23:32:34.387Z,79.30
2018-04-18T23:35:00.369Z,79.50
2018-04-18T23:37:27.089Z,81.20
2018-04-18T23:39:53.062Z,81.20
2018-04-18T23:42:19.052Z,80.70
2018-04-18T23:44:45.017Z,82.80
2018-04-18T23:47:11.033Z,80.50
2018-04-18T23:49:37.065Z,81.00
2018-04-18T23:52:03.124Z,80.60
2018-04-18T23:54:29.140Z,80.00
2018-04-18T23:56:55.184Z,79.60
2018-04-18T23:59:21.201Z,81.70
